Time;durP1;ratioP1;P1;durP2;ratioP2;P2;SDS_P1;SDS_P2;PMS_P1;PMS_P2;Temp;Humidity;BMP_temperature;BMP_pressure;BME280_temperature;BME280_humidity;BME280_pressure;Samples;Min_cycle;Max_cycle;Signal;HPM_P1;HPM_P2
2024/01/27 00:01:24;;;;;;;24.88;3.15;;;;;;;;;;5039429;28;20053;-71
2024/01/27 00:03:53;;;;;;;20.45;2.33;;;;;;;;;;5057296;28;20115;-71
2024/01/27 00:06:19;;;;;;;16.83;1.65;;;;;;;;;;5056988;28;20409;-71
2024/01/27 00:08:46;;;;;;;22.98;2.38;;;;;;;;;;5056956;28;20087;-71
2024/01/27 00:11:12;;;;;;;18.00;2.13;;;;;;;;;;5023215;28;20045;-71
2024/01/27 00:13:38;;;;;;;20.33;1.90;;;;;;;;;;5039073;28;20044;-71
2024/01/27 00:16:04;;;;;;;22.95;2.20;;;;;;;;;;5039669;28;20420;-71
2024/01/27 00:18:30;;;;;;;22.50;2.17;;;;;;;;;;5056823;28;20049;-71
2024/01/27 00:20:56;;;;;;;21.10;3.22;;;;;;;;;;5039677;28;20108;-71
2024/01/27 00:23:22;;;;;;;17.33;2.10;;;;;;;;;;5056667;28;20055;-71
2024/01/27 00:25:48;;;;;;;17.30;2.45;;;;;;;;;;5057026;28;20481;-72
2024/01/27 00:28:15;;;;;;;22.75;2.10;;;;;;;;;;5056497;28;20045;-71
2024/01/27 00:30:41;;;;;;;18.23;1.67;;;;;;;;;;5039342;28;20049;-71
2024/01/27 00:33:07;;;;;;;19.00;2.20;;;;;;;;;;5056408;28;20161;-71
2024/01/27 00:35:33;;;;;;;16.02;1.35;;;;;;;;;;5038710;28;20048;-71
2024/01/27 00:37:59;;;;;;;18.75;2.10;;;;;;;;;;5056021;28;20057;-71
2024/01/27 00:40:25;;;;;;;22.05;2.75;;;;;;;;;;5038418;28;20053;-70
2024/01/27 00:42:51;;;;;;;17.70;1.60;;;;;;;;;;5056339;28;20103;-71
2024/01/27 00:45:18;;;;;;;17.42;2.05;;;;;;;;;;5056297;28;20401;-72
2024/01/27 00:47:44;;;;;;;12.80;1.37;;;;;;;;;;5038493;28;20077;-71
2024/01/27 00:50:11;;;;;;;18.20;2.20;;;;;;;;;;5039158;28;20076;-72
2024/01/27 00:52:37;;;;;;;22.13;2.17;;;;;;;;;;5038518;28;20052;-71
2024/01/27 00:55:03;;;;;;;17.85;2.03;;;;;;;;;;5056130;28;20107;-71
2024/01/27 00:57:29;;;;;;;24.67;2.15;;;;;;;;;;5021891;28;20045;-70
2024/01/27 00:59:55;;;;;;;15.82;1.70;;;;;;;;;;5056121;28;20417;-71
2024/01/27 01:02:21;;;;;;;20.25;2.03;;;;;;;;;;5056456;28;20063;-71
2024/01/27 01:04:48;;;;;;;13.85;2.10;;;;;;;;;;5036668;28;20511;-71
2024/01/27 01:07:14;;;;;;;19.75;2.25;;;;;;;;;;5038811;28;20048;-71
2024/01/27 01:09:40;;;;;;;17.02;1.88;;;;;;;;;;5038513;28;20048;-72
2024/01/27 01:12:06;;;;;;;16.85;2.03;;;;;;;;;;5056330;28;20044;-71
2024/01/27 01:14:32;;;;;;;21.60;1.92;;;;;;;;;;5055718;28;20080;-71
2024/01/27 01:16:58;;;;;;;15.27;2.53;;;;;;;;;;5038227;28;20409;-69
2024/01/27 01:19:24;;;;;;;24.27;2.80;;;;;;;;;;5056419;28;20044;-71
2024/01/27 01:21:50;;;;;;;20.05;2.20;;;;;;;;;;5037828;28;20040;-71
2024/01/27 01:24:16;;;;;;;22.63;2.40;;;;;;;;;;5055584;28;20136;-72
2024/01/27 01:26:42;;;;;;;16.83;2.13;;;;;;;;;;5055587;28;20088;-71
2024/01/27 01:29:08;;;;;;;16.88;2.28;;;;;;;;;;5037793;28;20128;-71
2024/01/27 01:31:34;;;;;;;18.67;2.58;;;;;;;;;;5038001;28;20049;-71
2024/01/27 01:34:01;;;;;;;14.55;2.20;;;;;;;;;;5037965;28;20041;-71
2024/01/27 01:36:27;;;;;;;16.27;2.22;;;;;;;;;;5055349;28;20140;-72
2024/01/27 01:38:53;;;;;;;18.17;2.00;;;;;;;;;;5055339;28;20056;-71
2024/01/27 01:41:19;;;;;;;21.90;2.67;;;;;;;;;;5037507;28;20103;-71
2024/01/27 01:43:45;;;;;;;18.58;1.90;;;;;;;;;;5055200;28;20107;-71
2024/01/27 01:46:11;;;;;;;13.27;2.17;;;;;;;;;;5038517;28;20044;-72
2024/01/27 01:48:37;;;;;;;16.50;2.15;;;;;;;;;;5037522;28;20041;-72
2024/01/27 01:51:04;;;;;;;21.35;2.88;;;;;;;;;;5037411;28;20041;-72
2024/01/27 01:53:30;;;;;;;21.48;2.22;;;;;;;;;;5037418;28;20068;-72
2024/01/27 01:55:56;;;;;;;19.58;2.33;;;;;;;;;;5055137;28;20041;-72
2024/01/27 01:58:22;;;;;;;18.48;2.22;;;;;;;;;;5037908;28;20417;-71
2024/01/27 02:00:48;;;;;;;17.25;2.60;;;;;;;;;;5055207;28;20111;-72
2024/01/27 02:03:14;;;;;;;17.52;1.95;;;;;;;;;;5054891;28;20051;-71
2024/01/27 02:05:41;;;;;;;17.00;2.63;;;;;;;;;;5054722;28;20087;-71
2024/01/27 02:08:08;;;;;;;21.67;3.17;;;;;;;;;;5037229;28;20076;-72
2024/01/27 02:10:37;;;;;;;15.30;2.65;;;;;;;;;;5054626;28;20088;-72
2024/01/27 02:13:20;;;;;;;13.45;2.65;;;;;;;;;;5055281;28;20049;-72
2024/01/27 02:15:46;;;;;;;17.02;2.28;;;;;;;;;;5054093;28;20087;-71
2024/01/27 02:18:12;;;;;;;14.32;2.38;;;;;;;;;;5055239;28;20052;-72
2024/01/27 02:20:38;;;;;;;18.63;2.55;;;;;;;;;;5037722;28;20128;-70
2024/01/27 02:23:05;;;;;;;17.70;1.92;;;;;;;;;;5036938;28;20049;-71
2024/01/27 02:25:35;;;;;;;26.58;2.17;;;;;;;;;;5054376;28;20501;-72
2024/01/27 02:28:05;;;;;;;13.50;1.77;;;;;;;;;;5037590;28;20049;-72
2024/01/27 02:30:31;;;;;;;13.05;1.70;;;;;;;;;;5054718;28;20119;-72
2024/01/27 02:32:58;;;;;;;13.88;2.03;;;;;;;;;;5054330;28;20041;-72
2024/01/27 02:35:24;;;;;;;14.80;1.85;;;;;;;;;;5036759;28;20397;-72
2024/01/27 02:37:50;;;;;;;17.83;2.40;;;;;;;;;;5036768;28;20460;-73
2024/01/27 02:40:16;;;;;;;12.50;1.98;;;;;;;;;;5053932;28;20292;-71
2024/01/27 02:42:43;;;;;;;12.30;2.00;;;;;;;;;;5036905;28;20068;-73
2024/01/27 02:45:10;;;;;;;19.80;2.35;;;;;;;;;;5054210;28;20053;-72
2024/01/27 02:47:36;;;;;;;18.27;2.38;;;;;;;;;;5053981;28;20057;-71
2024/01/27 02:50:03;;;;;;;16.20;1.83;;;;;;;;;;5053967;28;20133;-71
2024/01/27 02:52:29;;;;;;;20.05;1.90;;;;;;;;;;5054423;28;20044;-72
2024/01/27 02:54:56;;;;;;;19.63;2.00;;;;;;;;;;5053905;28;20041;-71
2024/01/27 02:57:22;;;;;;;17.92;2.22;;;;;;;;;;5053902;28;20453;-71
2024/01/27 02:59:48;;;;;;;17.50;2.42;;;;;;;;;;5019777;28;20595;-71
2024/01/27 03:02:14;;;;;;;15.45;2.13;;;;;;;;;;5053787;28;20053;-71
2024/01/27 03:04:40;;;;;;;19.33;2.22;;;;;;;;;;5036933;28;20126;-71
2024/01/27 03:07:06;;;;;;;12.38;2.13;;;;;;;;;;5053721;28;20480;-71
2024/01/27 03:09:32;;;;;;;21.63;2.70;;;;;;;;;;5054061;28;20098;-71
2024/01/27 03:11:59;;;;;;;27.13;3.53;;;;;;;;;;5054219;28;20056;-72
2024/01/27 03:14:25;;;;;;;11.75;1.95;;;;;;;;;;5053901;28;20405;-73
2024/01/27 03:16:51;;;;;;;17.90;2.53;;;;;;;;;;5035663;28;20060;-71
2024/01/27 03:19:18;;;;;;;13.45;2.08;;;;;;;;;;5053557;28;20040;-71
2024/01/27 03:21:44;;;;;;;14.30;2.20;;;;;;;;;;5053437;28;20076;-71
2024/01/27 03:24:10;;;;;;;14.05;2.60;;;;;;;;;;5053457;28;20080;-71
2024/01/27 03:26:36;;;;;;;27.10;3.50;;;;;;;;;;5053041;28;20370;-73
2024/01/27 03:29:02;;;;;;;17.23;2.22;;;;;;;;;;5052906;28;20048;-72
2024/01/27 03:31:31;;;;;;;13.20;2.33;;;;;;;;;;5053450;28;20041;-72
2024/01/27 03:33:59;;;;;;;18.45;2.05;;;;;;;;;;5036060;28;20044;-72
2024/01/27 03:36:25;;;;;;;14.75;2.03;;;;;;;;;;5019851;28;20496;-71
2024/01/27 03:38:51;;;;;;;21.40;2.08;;;;;;;;;;5053479;28;20055;-71
2024/01/27 03:41:17;;;;;;;18.92;2.35;;;;;;;;;;5035533;28;20140;-70
2024/01/27 03:43:43;;;;;;;13.07;2.28;;;;;;;;;;5053254;28;20443;-71
2024/01/27 03:46:09;;;;;;;12.57;1.73;;;;;;;;;;5053268;28;20098;-70
2024/01/27 03:48:35;;;;;;;14.02;1.83;;;;;;;;;;5053201;28;20080;-73
2024/01/27 03:51:02;;;;;;;16.05;2.17;;;;;;;;;;5053052;28;20052;-71
2024/01/27 03:53:28;;;;;;;20.55;2.85;;;;;;;;;;5019205;28;20099;-71
2024/01/27 03:55:54;;;;;;;18.92;2.30;;;;;;;;;;5035623;28;20491;-71
2024/01/27 03:58:20;;;;;;;18.92;2.50;;;;;;;;;;5053421;28;20136;-71
2024/01/27 04:00:46;;;;;;;16.67;1.60;;;;;;;;;;5053533;28;20382;-71
2024/01/27 04:03:13;;;;;;;13.63;1.98;;;;;;;;;;5035615;28;20084;-71
2024/01/27 04:05:39;;;;;;;16.90;2.38;;;;;;;;;;5035417;28;20053;-71
2024/01/27 04:08:06;;;;;;;17.13;2.03;;;;;;;;;;5053020;28;20473;-71
2024/01/27 04:10:32;;;;;;;22.08;2.53;;;;;;;;;;5035239;28;20045;-71
2024/01/27 04:12:58;;;;;;;18.95;2.35;;;;;;;;;;5053359;28;20136;-71
2024/01/27 04:15:24;;;;;;;18.20;2.10;;;;;;;;;;5052889;28;20049;-71
2024/01/27 04:17:50;;;;;;;16.65;2.28;;;;;;;;;;5053586;28;20044;-71
2024/01/27 04:20:16;;;;;;;10.82;2.00;;;;;;;;;;5052927;28;20076;-72
2024/01/27 04:22:42;;;;;;;15.15;2.40;;;;;;;;;;5052526;28;20473;-72
2024/01/27 04:25:09;;;;;;;13.13;2.13;;;;;;;;;;5052878;28;20071;-70
2024/01/27 04:27:42;;;;;;;18.75;2.13;;;;;;;;;;5052837;28;20124;-71
2024/01/27 04:30:08;;;;;;;16.15;1.73;;;;;;;;;;5053054;28;20076;-71
2024/01/27 04:32:34;;;;;;;19.40;2.20;;;;;;;;;;5052491;28;20500;-71
2024/01/27 04:35:00;;;;;;;15.23;1.90;;;;;;;;;;5054039;28;20111;-78
2024/01/27 04:37:26;;;;;;;14.13;1.73;;;;;;;;;;5058213;28;20052;-79
2024/01/27 04:39:53;;;;;;;16.70;2.08;;;;;;;;;;5043623;28;20103;-79
2024/01/27 04:42:20;;;;;;;;;;;;;;;;;;5063785;28;20045;-78
2024/01/27 04:44:47;;;;;;;18.23;2.28;;;;;;;;;;5026168;28;20341;-77
2024/01/27 04:47:13;;;;;;;21.25;2.50;;;;;;;;;;5043894;28;20048;-79
2024/01/27 04:49:39;;;;;;;16.67;2.17;;;;;;;;;;5060116;28;20452;-79
2024/01/27 04:52:05;;;;;;;18.38;2.05;;;;;;;;;;5027284;28;20052;-78
2024/01/27 04:54:31;;;;;;;20.23;2.38;;;;;;;;;;5048104;28;20053;-79
2024/01/27 04:56:58;;;;;;;18.02;1.70;;;;;;;;;;5027528;28;20052;-78
2024/01/27 04:59:24;;;;;;;22.30;2.53;;;;;;;;;;5043949;28;20048;-79
2024/01/27 05:01:51;;;;;;;16.23;2.17;;;;;;;;;;5029918;28;20454;-78
2024/01/27 05:04:17;;;;;;;19.70;2.45;;;;;;;;;;5062318;28;20053;-79
2024/01/27 05:06:46;;;;;;;13.63;2.40;;;;;;;;;;5062561;28;20084;-78
2024/01/27 05:09:12;;;;;;;15.07;2.08;;;;;;;;;;5029891;28;20052;-79
2024/01/27 05:11:38;;;;;;;16.98;2.33;;;;;;;;;;5060917;28;20049;-77
2024/01/27 05:14:04;;;;;;;13.35;2.58;;;;;;;;;;5059954;28;20049;-79
2024/01/27 05:16:32;;;;;;;10.88;1.80;;;;;;;;;;5042572;28;20555;-78
2024/01/27 05:18:58;;;;;;;;;;;;;;;;;;5043969;28;20072;-78
2024/01/27 05:21:24;;;;;;;21.27;2.35;;;;;;;;;;5043752;28;19948;-77
2024/01/27 05:23:50;;;;;;;18.95;2.33;;;;;;;;;;5046276;28;20044;-78
2024/01/27 05:26:16;;;;;;;17.65;2.90;;;;;;;;;;5063003;28;20048;-79
2024/01/27 05:28:42;;;;;;;16.48;2.17;;;;;;;;;;5030018;28;20119;-78
2024/01/27 05:31:08;;;;;;;18.40;3.00;;;;;;;;;;5045472;28;20052;-77
2024/01/27 05:33:35;;;;;;;22.57;3.00;;;;;;;;;;5047328;28;20048;-79
2024/01/27 05:36:01;;;;;;;14.98;2.47;;;;;;;;;;5063696;28;20052;-77
2024/01/27 05:38:29;;;;;;;20.58;2.42;;;;;;;;;;5064470;28;20075;-79
2024/01/27 05:40:56;;;;;;;15.23;2.47;;;;;;;;;;5046265;28;20136;-78
2024/01/27 05:43:22;;;;;;;26.98;3.22;;;;;;;;;;5061324;28;20052;-78
2024/01/27 05:45:49;;;;;;;17.45;2.60;;;;;;;;;;5046780;28;20449;-78
2024/01/27 05:48:17;;;;;;;16.00;2.70;;;;;;;;;;5067963;28;20060;-78
2024/01/27 05:50:43;;;;;;;19.85;3.22;;;;;;;;;;5047697;28;20307;-78
2024/01/27 05:53:10;;;;;;;27.50;3.45;;;;;;;;;;5048184;28;20128;-77
2024/01/27 05:55:36;;;;;;;22.58;3.35;;;;;;;;;;5045338;28;20531;-77
2024/01/27 05:58:02;;;;;;;22.45;2.80;;;;;;;;;;5059148;28;20051;-76
2024/01/27 06:00:28;;;;;;;22.40;2.67;;;;;;;;;;5041258;28;20076;-79
2024/01/27 06:02:54;;;;;;;21.60;3.50;;;;;;;;;;5040605;28;20045;-75
2024/01/27 06:05:20;;;;;;;21.00;2.80;;;;;;;;;;5042764;28;20048;-78
2024/01/27 06:07:47;;;;;;;23.38;3.63;;;;;;;;;;5041564;28;20319;-79
2024/01/27 06:10:14;;;;;;;14.02;2.88;;;;;;;;;;5039539;28;20056;-78
2024/01/27 06:12:40;;;;;;;24.55;3.22;;;;;;;;;;5043605;28;20127;-77
2024/01/27 06:15:08;;;;;;;20.80;3.78;;;;;;;;;;5058856;28;20052;-76
2024/01/27 06:17:34;;;;;;;19.02;3.10;;;;;;;;;;5058032;28;20092;-78
2024/01/27 06:20:00;;;;;;;22.55;3.72;;;;;;;;;;5059657;28;20064;-75
2024/01/27 06:22:27;;;;;;;21.05;3.70;;;;;;;;;;5042029;28;20049;-77
2024/01/27 06:24:53;;;;;;;20.40;4.22;;;;;;;;;;5043114;28;20045;-77
2024/01/27 06:27:19;;;;;;;20.70;3.92;;;;;;;;;;5060789;28;20132;-77
2024/01/27 06:29:45;;;;;;;18.55;3.63;;;;;;;;;;5061606;28;20044;-78
2024/01/27 06:32:11;;;;;;;24.30;4.70;;;;;;;;;;5060702;28;20049;-78
2024/01/27 06:34:37;;;;;;;20.40;3.90;;;;;;;;;;5041513;28;20393;-77
2024/01/27 06:37:04;;;;;;;26.27;4.80;;;;;;;;;;5041408;28;20448;-78
2024/01/27 06:39:30;;;;;;;;;;;;;;;;;;5024605;28;20053;-78
2024/01/27 06:41:56;;;;;;;17.60;4.40;;;;;;;;;;5055730;28;20329;-77
2024/01/27 06:44:23;;;;;;;24.73;4.18;;;;;;;;;;5056992;28;20045;-78
2024/01/27 06:46:50;;;;;;;24.80;4.72;;;;;;;;;;5022465;28;20084;-77
2024/01/27 06:49:19;;;;;;;23.00;5.32;;;;;;;;;;5055511;28;20409;-77
2024/01/27 06:51:45;;;;;;;28.10;5.13;;;;;;;;;;5055176;28;20128;-77
2024/01/27 06:54:11;;;;;;;22.02;5.43;;;;;;;;;;5054827;28;20178;-77
2024/01/27 06:56:38;;;;;;;25.25;5.53;;;;;;;;;;5054504;28;20540;-78
2024/01/27 06:59:04;;;;;;;23.27;5.93;;;;;;;;;;5037279;28;20044;-78
2024/01/27 07:01:30;;;;;;;19.42;5.03;;;;;;;;;;5055119;28;20107;-77
2024/01/27 07:03:56;;;;;;;24.75;6.05;;;;;;;;;;5036587;28;20049;-77
2024/01/27 07:06:22;;;;;;;22.88;5.28;;;;;;;;;;5036860;28;20514;-78
2024/01/27 07:08:49;;;;;;;23.90;5.97;;;;;;;;;;5037002;28;20053;-77
2024/01/27 07:11:15;;;;;;;25.42;5.70;;;;;;;;;;5036737;28;20091;-77
2024/01/27 07:13:41;;;;;;;31.60;6.38;;;;;;;;;;5054811;28;20136;-76
2024/01/27 07:16:08;;;;;;;25.27;5.60;;;;;;;;;;5054970;28;20049;-78
2024/01/27 07:18:35;;;;;;;35.67;7.10;;;;;;;;;;5054741;28;20379;-77
2024/01/27 07:21:01;;;;;;;30.00;6.50;;;;;;;;;;5054403;28;20056;-77
2024/01/27 07:23:28;;;;;;;21.95;6.10;;;;;;;;;;5036594;28;20053;-78
2024/01/27 07:25:54;;;;;;;31.67;7.32;;;;;;;;;;5036889;28;20053;-76
2024/01/27 07:28:20;;;;;;;24.20;6.53;;;;;;;;;;5054264;28;20045;-77
2024/01/27 07:30:46;;;;;;;24.08;6.75;;;;;;;;;;5054562;28;20084;-78
2024/01/27 07:33:13;;;;;;;30.95;7.75;;;;;;;;;;5036816;28;20547;-77
2024/01/27 07:35:39;;;;;;;30.40;7.38;;;;;;;;;;5054981;28;20548;-77
2024/01/27 07:38:05;;;;;;;29.45;6.80;;;;;;;;;;5039047;28;20048;-76
2024/01/27 07:40:31;;;;;;;29.15;6.75;;;;;;;;;;5037528;28;20057;-78
2024/01/27 07:42:58;;;;;;;26.60;7.25;;;;;;;;;;5041766;28;20064;-78
2024/01/27 07:45:24;;;;;;;24.80;7.05;;;;;;;;;;5039378;28;20102;-79
2024/01/27 07:47:50;;;;;;;33.47;7.60;;;;;;;;;;5039890;28;20049;-78
2024/01/27 07:50:16;;;;;;;28.58;7.63;;;;;;;;;;5061356;28;20040;-78
2024/01/27 07:52:42;;;;;;;25.13;7.82;;;;;;;;;;5062165;28;20053;-78
2024/01/27 07:55:09;;;;;;;22.55;7.38;;;;;;;;;;5024461;28;20500;-77
2024/01/27 07:57:35;;;;;;;34.20;8.10;;;;;;;;;;5029461;28;20049;-78
2024/01/27 08:00:02;;;;;;;30.83;8.02;;;;;;;;;;5064251;28;20059;-77
2024/01/27 08:02:28;;;;;;;30.08;8.20;;;;;;;;;;5044256;28;20560;-77
2024/01/27 08:04:54;;;;;;;24.02;7.78;;;;;;;;;;5022663;28;20055;-77
2024/01/27 08:07:20;;;;;;;34.65;9.13;;;;;;;;;;5040556;28;20053;-80
2024/01/27 08:09:46;;;;;;;24.63;8.65;;;;;;;;;;5044146;28;20311;-77
2024/01/27 08:12:12;;;;;;;30.50;8.32;;;;;;;;;;5064305;28;20049;-75
2024/01/27 08:14:39;;;;;;;27.90;8.65;;;;;;;;;;5065637;28;20053;-79
2024/01/27 08:17:05;;;;;;;36.13;9.55;;;;;;;;;;5029851;28;20128;-80
2024/01/27 08:19:32;;;;;;;35.50;8.52;;;;;;;;;;5030069;28;20425;-79
2024/01/27 08:21:58;;;;;;;36.70;8.45;;;;;;;;;;5044503;28;20045;-78
2024/01/27 08:24:25;;;;;;;28.02;8.98;;;;;;;;;;5045906;28;20052;-78
2024/01/27 08:26:51;;;;;;;28.13;8.85;;;;;;;;;;5063262;28;20049;-78
2024/01/27 08:29:17;;;;;;;24.43;8.57;;;;;;;;;;5062110;28;20088;-78
2024/01/27 08:31:43;;;;;;;34.65;9.48;;;;;;;;;;5060497;28;20045;-78
2024/01/27 08:34:12;;;;;;;35.72;9.32;;;;;;;;;;5063048;28;20053;-78
2024/01/27 08:36:38;;;;;;;28.25;9.38;;;;;;;;;;5028023;28;20049;-78
2024/01/27 08:39:07;;;;;;;28.35;8.90;;;;;;;;;;5064871;28;20045;-78
2024/01/27 08:41:33;;;;;;;30.60;9.45;;;;;;;;;;5048443;28;20091;-80
2024/01/27 08:43:59;;;;;;;26.58;9.60;;;;;;;;;;5064018;28;20059;-79
2024/01/27 08:46:25;;;;;;;36.08;9.95;;;;;;;;;;5028796;28;20481;-79
2024/01/27 08:48:51;;;;;;;34.80;10.75;;;;;;;;;;5044606;28;20413;-80
2024/01/27 08:51:18;;;;;;;33.22;11.15;;;;;;;;;;5060485;28;20044;-76
2024/01/27 08:53:48;;;;;;;28.17;10.63;;;;;;;;;;5061574;28;20068;-79
2024/01/27 08:56:15;;;;;;;34.50;10.43;;;;;;;;;;5045621;28;20472;-79
2024/01/27 08:58:42;;;;;;;29.60;10.40;;;;;;;;;;5061702;28;20048;-79
2024/01/27 09:01:09;;;;;;;34.63;10.85;;;;;;;;;;5063761;28;20041;-79
2024/01/27 09:03:35;;;;;;;39.78;10.95;;;;;;;;;;5028823;28;20057;-79
2024/01/27 09:06:01;;;;;;;33.92;10.40;;;;;;;;;;5043219;28;20049;-77
2024/01/27 09:08:28;;;;;;;40.58;11.73;;;;;;;;;;5060376;28;20137;-80
2024/01/27 09:10:54;;;;;;;31.88;10.52;;;;;;;;;;5042808;28;20045;-80
2024/01/27 09:13:20;;;;;;;34.17;10.57;;;;;;;;;;5059652;28;20071;-80
2024/01/27 09:15:46;;;;;;;34.80;11.60;;;;;;;;;;5061940;28;20416;-79
2024/01/27 09:18:12;;;;;;;39.28;11.50;;;;;;;;;;5060592;28;20056;-80
2024/01/27 09:20:39;;;;;;;27.88;10.48;;;;;;;;;;5041198;28;20052;-80
2024/01/27 09:23:05;;;;;;;33.40;11.35;;;;;;;;;;5043221;28;20056;-80
2024/01/27 09:25:31;;;;;;;38.13;11.27;;;;;;;;;;5039815;28;20053;-79
2024/01/27 09:28:00;;;;;;;30.88;10.10;;;;;;;;;;5040651;28;20041;-80
2024/01/27 09:30:27;;;;;;;36.20;11.13;;;;;;;;;;5059602;28;20041;-80
2024/01/27 09:32:53;;;;;;;31.45;10.98;;;;;;;;;;5042338;28;20052;-81
2024/01/27 09:35:20;;;;;;;30.95;11.15;;;;;;;;;;5058321;28;20124;-78
2024/01/27 09:37:46;;;;;;;28.55;11.00;;;;;;;;;;5058601;28;20128;-79
2024/01/27 09:40:13;;;;;;;35.58;10.38;;;;;;;;;;5057682;28;20124;-77
2024/01/27 09:42:42;;;;;;;34.15;11.57;;;;;;;;;;5057942;28;20099;-77
2024/01/27 09:45:10;;;;;;;35.83;11.20;;;;;;;;;;5041077;28;20049;-78
2024/01/27 09:47:37;;;;;;;34.72;12.65;;;;;;;;;;5039466;28;20045;-76
2024/01/27 09:50:03;;;;;;;27.30;11.02;;;;;;;;;;5057407;28;20064;-79
2024/01/27 09:52:29;;;;;;;31.90;9.90;;;;;;;;;;5059655;28;20087;-80
2024/01/27 09:54:55;;;;;;;31.70;11.60;;;;;;;;;;5043640;28;20108;-80
2024/01/27 09:57:21;;;;;;;42.72;11.82;;;;;;;;;;5060080;28;20370;-81
2024/01/27 09:59:48;;;;;;;31.77;11.40;;;;;;;;;;5061641;28;20064;-79
2024/01/27 10:02:14;;;;;;;32.20;9.93;;;;;;;;;;5065999;28;20045;-82
2024/01/27 10:04:42;;;;;;;29.07;9.60;;;;;;;;;;5045205;28;20087;-78
2024/01/27 10:07:08;;;;;;;36.80;9.98;;;;;;;;;;5058401;28;20045;-80
2024/01/27 10:09:34;;;;;;;31.55;9.52;;;;;;;;;;5057873;28;20044;-81
2024/01/27 10:12:01;;;;;;;33.78;9.57;;;;;;;;;;5061372;28;20433;-78
2024/01/27 10:14:40;;;;;;;28.33;9.43;;;;;;;;;;5040266;28;20048;-79
2024/01/27 10:17:10;;;;;;;24.00;9.13;;;;;;;;;;5021970;28;20120;-79
2024/01/27 10:19:36;;;;;;;29.15;9.70;;;;;;;;;;5038211;28;20059;-79
2024/01/27 10:22:02;;;;;;;25.27;8.63;;;;;;;;;;5055832;28;20405;-77
2024/01/27 10:24:29;;;;;;;20.63;8.20;;;;;;;;;;5056694;28;20087;-78
2024/01/27 10:27:04;;;;;;;19.00;7.60;;;;;;;;;;5037990;28;20133;-79
2024/01/27 10:29:31;;;;;;;22.33;7.28;;;;;;;;;;5021950;28;20107;-78
2024/01/27 10:32:07;;;;;;;24.75;8.07;;;;;;;;;;5037793;28;20099;-78
2024/01/27 10:34:33;;;;;;;27.48;8.05;;;;;;;;;;5056570;28;20064;-77
2024/01/27 10:37:00;;;;;;;28.48;7.55;;;;;;;;;;5060556;28;20049;-81
2024/01/27 10:39:26;;;;;;;23.23;8.65;;;;;;;;;;5068461;28;20045;-79
2024/01/27 10:41:52;;;;;;;23.33;8.27;;;;;;;;;;5044571;28;20056;-81
2024/01/27 10:44:19;;;;;;;23.53;8.20;;;;;;;;;;5038804;28;20053;-78
2024/01/27 10:46:49;;;;;;;18.57;6.87;;;;;;;;;;5055735;28;20334;-77
2024/01/27 10:49:16;;;;;;;26.52;7.25;;;;;;;;;;5055502;28;20345;-80
2024/01/27 10:51:55;;;;;;;24.48;8.43;;;;;;;;;;5056553;28;20056;-77
2024/01/27 10:54:28;;;;;;;24.95;7.43;;;;;;;;;;5037923;28;20424;-78
2024/01/27 10:56:56;;;;;;;24.98;6.47;;;;;;;;;;5020698;28;20059;-81
2024/01/27 10:59:22;;;;;;;19.05;6.85;;;;;;;;;;5055421;28;20049;-78
2024/01/27 11:01:52;;;;;;;23.30;6.27;;;;;;;;;;5055205;28;20408;-78
2024/01/27 11:04:20;;;;;;;24.65;6.38;;;;;;;;;;5056882;28;20044;-78
2024/01/27 11:06:48;;;;;;;28.20;7.78;;;;;;;;;;5037252;28;20053;-78
2024/01/27 11:09:14;;;;;;;22.45;6.22;;;;;;;;;;5038930;28;20492;-79
2024/01/27 11:11:42;;;;;;;19.23;6.20;;;;;;;;;;5038736;28;20154;-79
2024/01/27 11:14:09;;;;;;;17.67;5.70;;;;;;;;;;5056626;28;20040;-83
2024/01/27 11:16:35;;;;;;;19.30;6.30;;;;;;;;;;5025451;28;20052;-79
2024/01/27 11:19:02;;;;;;;20.90;6.28;;;;;;;;;;5057239;28;20099;-80
2024/01/27 11:21:28;;;;;;;21.73;6.07;;;;;;;;;;5055342;28;20068;-78
2024/01/27 11:23:54;;;;;;;14.32;4.28;;;;;;;;;;5038009;28;20127;-80
2024/01/27 11:26:21;;;;;;;17.83;4.80;;;;;;;;;;5038167;28;20048;-80
2024/01/27 11:28:48;;;;;;;12.30;4.70;;;;;;;;;;5056313;28;20056;-78
2024/01/27 11:31:17;;;;;;;18.52;4.78;;;;;;;;;;5053728;28;20488;-79
2024/01/27 11:33:43;;;;;;;18.35;4.32;;;;;;;;;;5053496;28;20040;-78
2024/01/27 11:36:18;;;;;;;17.63;3.80;;;;;;;;;;5019766;28;20067;-80
2024/01/27 11:38:44;;;;;;;17.88;3.95;;;;;;;;;;5054195;28;20465;-82
2024/01/27 11:41:10;;;;;;;17.15;3.33;;;;;;;;;;5020506;28;20079;-80
2024/01/27 11:43:36;;;;;;;18.88;3.53;;;;;;;;;;5020586;28;20106;-78
2024/01/27 11:46:03;;;;;;;16.40;4.20;;;;;;;;;;5055410;28;20045;-82
2024/01/27 11:48:29;;;;;;;14.38;3.58;;;;;;;;;;5038386;28;20102;-79
2024/01/27 11:51:09;;;;;;;15.80;3.15;;;;;;;;;;5055985;28;20124;-79
2024/01/27 11:53:35;;;;;;;14.27;3.47;;;;;;;;;;5037600;28;20102;-82
2024/01/27 11:56:01;;;;;;;10.60;2.22;;;;;;;;;;5037867;28;20053;-77
2024/01/27 11:58:28;;;;;;;12.45;2.72;;;;;;;;;;5037974;28;20366;-81
2024/01/27 12:00:54;;;;;;;18.23;2.97;;;;;;;;;;5022560;28;20449;-80
2024/01/27 12:03:20;;;;;;;16.60;3.63;;;;;;;;;;5021156;28;20044;-78
2024/01/27 12:05:46;;;;;;;14.82;3.25;;;;;;;;;;5037275;28;20057;-78
2024/01/27 12:08:12;;;;;;;27.00;4.82;;;;;;;;;;5040946;28;20037;-81
2024/01/27 12:10:39;;;;;;;16.98;3.33;;;;;;;;;;5038171;28;20041;-79
2024/01/27 12:13:07;;;;;;;16.90;3.83;;;;;;;;;;5055996;28;20486;-78
2024/01/27 12:15:34;;;;;;;17.70;3.10;;;;;;;;;;5038205;28;20098;-80
2024/01/27 12:18:00;;;;;;;15.35;3.40;;;;;;;;;;5024447;28;20366;-82
2024/01/27 12:20:26;;;;;;;19.50;3.58;;;;;;;;;;5044679;28;20048;-80
2024/01/27 12:23:03;;;;;;;14.05;2.85;;;;;;;;;;5061070;28;20171;-79
2024/01/27 12:25:29;;;;;;;14.50;3.30;;;;;;;;;;5059972;28;20127;-79
2024/01/27 12:27:55;;;;;;;14.60;3.45;;;;;;;;;;5055413;28;20055;-76
2024/01/27 12:30:21;;;;;;;21.33;3.47;;;;;;;;;;5054458;28;20568;-79
2024/01/27 12:32:48;;;;;;;11.43;3.28;;;;;;;;;;5054386;28;20048;-82
2024/01/27 12:35:15;;;;;;;17.73;3.67;;;;;;;;;;5055712;28;20049;-79
2024/01/27 12:37:41;;;;;;;16.75;3.30;;;;;;;;;;5037509;28;20052;-78
2024/01/27 12:40:20;;;;;;;13.38;3.47;;;;;;;;;;5055230;28;20111;-75
2024/01/27 12:42:46;;;;;;;12.13;3.63;;;;;;;;;;5037455;28;20049;-79
2024/01/27 12:45:12;;;;;;;12.68;3.25;;;;;;;;;;5057098;28;20056;-79
2024/01/27 12:47:39;;;;;;;12.45;2.90;;;;;;;;;;5039508;28;20076;-77
2024/01/27 12:50:06;;;;;;;16.23;3.13;;;;;;;;;;5055259;28;20168;-78
2024/01/27 12:52:32;;;;;;;13.50;3.15;;;;;;;;;;5039753;28;20057;-80
2024/01/27 12:54:58;;;;;;;11.00;2.95;;;;;;;;;;5020542;28;20052;-82
2024/01/27 12:57:24;;;;;;;15.55;2.97;;;;;;;;;;5054053;28;20049;-78
2024/01/27 12:59:51;;;;;;;15.97;3.73;;;;;;;;;;5056065;28;20048;-81
2024/01/27 13:02:17;;;;;;;11.38;2.70;;;;;;;;;;5059908;28;20470;-78
2024/01/27 13:04:43;;;;;;;13.25;2.40;;;;;;;;;;5061066;28;20055;-76
2024/01/27 13:07:10;;;;;;;17.58;3.70;;;;;;;;;;5047378;28;20124;-79
2024/01/27 13:09:37;;;;;;;12.90;2.70;;;;;;;;;;5068585;28;20079;-81
2024/01/27 13:12:03;;;;;;;8.80;2.47;;;;;;;;;;5063226;28;20041;-78
2024/01/27 13:14:29;;;;;;;9.27;2.42;;;;;;;;;;5025829;28;20110;-81
2024/01/27 13:16:56;;;;;;;21.63;3.60;;;;;;;;;;5061766;28;20045;-77
2024/01/27 13:19:23;;;;;;;23.52;3.25;;;;;;;;;;5043079;28;20080;-81
2024/01/27 13:21:49;;;;;;;17.00;3.33;;;;;;;;;;5043701;28;20052;-79
2024/01/27 13:24:15;;;;;;;14.57;2.45;;;;;;;;;;5060408;28;20392;-80
2024/01/27 13:26:41;;;;;;;11.82;2.55;;;;;;;;;;5061392;28;20041;-80
2024/01/27 13:29:08;;;;;;;15.10;3.28;;;;;;;;;;5061348;28;20596;-79
2024/01/27 13:31:34;;;;;;;12.27;2.97;;;;;;;;;;5040188;28;20049;-78
2024/01/27 13:34:05;;;;;;;17.20;2.17;;;;;;;;;;5041026;28;20041;-80
2024/01/27 13:36:31;;;;;;;14.95;2.65;;;;;;;;;;5061525;28;20053;-78
2024/01/27 13:38:57;;;;;;;14.00;3.00;;;;;;;;;;5058178;28;20053;-75
2024/01/27 13:41:24;;;;;;;13.18;2.17;;;;;;;;;;5040248;28;20111;-77
2024/01/27 13:43:50;;;;;;;15.18;2.10;;;;;;;;;;5058458;28;20041;-76
2024/01/27 13:46:16;;;;;;;13.27;2.13;;;;;;;;;;5056938;28;20504;-79
2024/01/27 13:48:42;;;;;;;11.63;2.22;;;;;;;;;;5057578;28;20128;-77
2024/01/27 13:51:08;;;;;;;13.70;2.50;;;;;;;;;;5039538;28;20090;-79
2024/01/27 13:53:34;;;;;;;16.77;2.65;;;;;;;;;;5041621;28;20048;-79
2024/01/27 13:56:00;;;;;;;12.68;2.42;;;;;;;;;;5057985;28;20043;-80
2024/01/27 13:58:26;;;;;;;14.65;2.50;;;;;;;;;;5042665;28;20097;-80
2024/01/27 14:00:53;;;;;;;9.63;1.60;;;;;;;;;;5057112;28;20048;-77
2024/01/27 14:03:19;;;;;;;12.07;1.65;;;;;;;;;;5057738;28;20367;-79
2024/01/27 14:05:47;;;;;;;10.13;1.83;;;;;;;;;;5057768;28;20091;-80
2024/01/27 14:08:13;;;;;;;12.77;1.50;;;;;;;;;;5039270;28;20053;-76
2024/01/27 14:10:39;;;;;;;8.55;1.73;;;;;;;;;;5023089;28;20088;-80
2024/01/27 14:13:09;;;;;;;8.43;1.40;;;;;;;;;;5039516;28;20104;-79
2024/01/27 14:15:38;;;;;;;12.85;1.60;;;;;;;;;;5060704;28;20060;-79
2024/01/27 14:18:06;;;;;;;9.65;1.42;;;;;;;;;;5030057;28;20135;-78
2024/01/27 14:20:34;;;;;;;12.70;1.67;;;;;;;;;;5043589;28;20056;-78
2024/01/27 14:23:00;;;;;;;8.02;1.60;;;;;;;;;;5057648;28;20506;-79
2024/01/27 14:25:26;;;;;;;12.77;2.00;;;;;;;;;;5040450;28;20045;-79
2024/01/27 14:27:53;;;;;;;12.77;2.00;;;;;;;;;;5023173;28;20044;-77